Time;durP1;ratioP1;P1;durP2;ratioP2;P2;SDS_P1;SDS_P2;PMS_P1;PMS_P2;Temp;Humidity;BMP_temperature;BMP_pressure;BME280_temperature;BME280_humidity;BME280_pressure;Samples;Min_cycle;Max_cycle;Signal;HPM_P1;HPM_P2
2021/12/01 00:01:31;;;;;;;0.50;0.50;;;;;;;2.17;91.03;95130.59;5090911;28;20519;-52
2021/12/01 00:04:01;;;;;;;0.30;0.20;;;;;;;2.46;91.47;95126.38;5091462;28;20424;-52
2021/12/01 00:06:30;;;;;;;0.30;0.20;;;;;;;2.69;91.73;95123.81;5092033;28;20485;-52
2021/12/01 00:08:59;;;;;;;0.57;0.57;;;;;;;1.76;93.97;95131.31;5091702;28;20425;-52
2021/12/01 00:11:28;;;;;;;0.53;0.53;;;;;;;1.55;99.88;95136.97;5091981;28;20504;-52
2021/12/01 00:13:56;;;;;;;1.13;1.13;;;;;;;2.26;98.05;95137.09;5091962;28;20428;-52
2021/12/01 00:16:25;;;;;;;2.23;1.90;;;;;;;2.48;93.91;95130.34;5091862;28;20810;-52
2021/12/01 00:18:53;;;;;;;0.30;0.30;;;;;;;2.12;95.06;95125.25;5091808;28;20880;-52
2021/12/01 00:21:23;;;;;;;0.80;0.80;;;;;;;2.33;94.10;95129.97;5091904;28;20489;-52
2021/12/01 00:23:52;;;;;;;0.30;0.20;;;;;;;1.86;93.51;95139.44;5091441;28;20511;-52
2021/12/01 00:26:20;;;;;;;0.30;0.20;;;;;;;1.63;100.00;95135.88;5091528;28;20429;-52
2021/12/01 00:28:49;;;;;;;10.10;2.20;;;;;;;1.36;100.00;95126.75;5091457;28;20476;-52
2021/12/01 00:31:18;;;;;;;0.40;0.40;;;;;;;1.21;100.00;95138.31;5091266;28;20529;-52
2021/12/01 00:33:46;;;;;;;0.50;0.50;;;;;;;1.93;100.00;95136.72;5091416;28;20523;-52
2021/12/01 00:36:15;;;;;;;0.30;0.30;;;;;;;1.67;100.00;95144.91;5094198;28;20440;-52
2021/12/01 00:38:46;;;;;;;0.40;0.40;;;;;;;1.12;100.00;95147.44;5095308;28;20964;-52
2021/12/01 00:41:15;;;;;;;0.43;0.43;;;;;;;0.75;100.00;95129.31;5095632;28;20452;-52
2021/12/01 00:43:43;;;;;;;0.30;0.20;;;;;;;0.48;100.00;95157.41;5095277;28;20460;-52
2021/12/01 00:46:14;;;;;;;0.40;0.40;;;;;;;0.46;100.00;95169.81;5095504;28;20424;-52
2021/12/01 00:48:42;;;;;;;0.40;0.40;;;;;;;0.75;100.00;95161.41;5095358;28;20463;-52
2021/12/01 00:51:11;;;;;;;0.70;0.40;;;;;;;1.29;100.00;95164.16;5095186;28;20972;-52
2021/12/01 00:53:40;;;;;;;0.30;0.20;;;;;;;1.74;100.00;95151.66;5095103;28;20471;-52
2021/12/01 00:56:10;;;;;;;0.30;0.20;;;;;;;1.84;100.00;95157.16;5095341;28;20515;-52
2021/12/01 00:58:39;;;;;;;0.33;0.33;;;;;;;0.65;98.62;94999.41;5094950;28;20475;-52
2021/12/01 01:01:07;;;;;;;0.50;0.50;;;;;;;1.91;100.00;95138.78;5094869;28;20441;-52
2021/12/01 01:03:36;;;;;;;0.30;0.20;;;;;;;1.60;100.00;95131.09;5095148;28;20798;-52
2021/12/01 01:06:05;;;;;;;0.30;0.20;;;;;;;1.62;100.00;95144.75;5094843;28;20520;-52
2021/12/01 01:08:33;;;;;;;0.30;0.20;;;;;;;1.56;100.00;95093.38;5094667;28;20470;-52
2021/12/01 01:16:22;;;;;;;0.30;0.20;;;;;;;1.92;100.00;95132.53;5094769;28;20493;-52
2021/12/01 01:16:50;;;;;;;0.30;0.20;;;;;;;1.59;100.00;95147.78;5093568;28;20523;-52
2021/12/01 01:19:21;;;;;;;3.20;0.43;;;;;;;1.38;100.00;95143.78;5094636;28;20416;-52
2021/12/01 01:21:51;;;;;;;0.30;0.20;;;;;;;1.75;100.00;95155.84;5094737;28;20511;-52
2021/12/01 01:24:21;;;;;;;0.30;0.30;;;;;;;1.66;100.00;95143.28;5094797;28;20448;-52
2021/12/01 01:26:50;;;;;;;0.30;0.20;;;;;;;1.79;100.00;95148.38;5094020;28;20432;-52
2021/12/01 01:29:22;;;;;;;0.30;0.20;;;;;;;1.97;100.00;95144.94;5093761;28;20563;-52
2021/12/01 01:31:52;;;;;;;0.30;0.20;;;;;;;1.45;100.00;95138.47;5094240;28;20433;-52
2021/12/01 01:34:21;;;;;;;0.30;0.20;;;;;;;1.64;100.00;95138.28;5094384;28;20424;-52
2021/12/01 01:36:50;;;;;;;0.30;0.20;;;;;;;2.14;98.73;95148.53;5094438;28;20429;-52
2021/12/01 01:39:20;;;;;;;0.30;0.30;;;;;;;2.24;96.44;95140.97;5094244;28;20447;-52
2021/12/01 01:41:49;;;;;;;0.30;0.20;;;;;;;1.45;100.00;95128.03;5093861;28;20436;-52
2021/12/01 01:44:17;;;;;;;0.30;0.30;;;;;;;1.67;100.00;95098.66;5094193;28;20515;-52
2021/12/01 01:46:47;;;;;;;0.30;0.20;;;;;;;2.30;99.17;95112.09;5093322;28;20493;-52
2021/12/01 01:49:18;;;;;;;0.30;0.20;;;;;;;1.88;100.00;95126.13;5094280;28;20480;-52
2021/12/01 01:51:47;;;;;;;0.30;0.20;;;;;;;1.28;100.00;95127.81;5093781;28;20460;-52
2021/12/01 01:54:16;;;;;;;0.30;0.20;;;;;;;1.02;100.00;95094.94;5093958;28;20519;-52
2021/12/01 01:56:45;;;;;;;0.30;0.30;;;;;;;1.16;100.00;95119.13;5093662;28;20849;-52
2021/12/01 01:59:14;;;;;;;0.30;0.20;;;;;;;1.10;100.00;95115.56;5093941;28;20499;-52
2021/12/01 02:01:45;;;;;;;0.50;0.50;;;;;;;1.31;100.00;95105.72;5094092;28;20475;-52
2021/12/01 02:04:18;;;;;;;1.03;1.03;;;;;;;1.23;100.00;95123.25;5093115;28;20521;-52
2021/12/01 02:06:48;;;;;;;0.30;0.20;;;;;;;0.98;100.00;95122.50;5093947;28;20503;-51
2021/12/01 02:09:20;;;;;;;0.80;0.80;;;;;;;1.57;100.00;95110.66;5093686;28;20507;-52
2021/12/01 02:11:49;;;;;;;0.30;0.20;;;;;;;1.74;100.00;95114.25;5093234;28;20925;-52
2021/12/01 02:14:17;;;;;;;0.70;0.70;;;;;;;1.54;100.00;95122.34;5093808;28;20493;-52
2021/12/01 02:16:46;;;;;;;0.30;0.20;;;;;;;1.13;100.00;95114.31;5093525;28;20432;-52
2021/12/01 02:19:17;;;;;;;0.30;0.23;;;;;;;0.93;100.00;95117.13;5093222;28;20469;-52
2021/12/01 02:21:47;;;;;;;0.30;0.20;;;;;;;0.35;100.00;95094.91;5093709;28;20471;-52
2021/12/01 02:24:17;;;;;;;0.70;0.70;;;;;;;0.93;100.00;95138.00;5093341;28;20929;-52
2021/12/01 02:26:49;;;;;;;0.80;0.80;;;;;;;0.42;100.00;95124.34;5093342;28;20455;-52
2021/12/01 02:29:19;;;;;;;0.30;0.20;;;;;;;0.81;100.00;95110.19;5093060;28;20930;-52
2021/12/01 02:31:50;;;;;;;0.30;0.20;;;;;;;1.38;100.00;95114.25;5093044;28;20468;-52
2021/12/01 02:34:20;;;;;;;0.60;0.60;;;;;;;1.08;100.00;95101.13;5093156;28;20431;-52
2021/12/01 02:36:53;;;;;;;0.40;0.40;;;;;;;1.89;100.00;95101.63;5093244;28;20478;-52
2021/12/01 02:39:21;;;;;;;0.30;0.30;;;;;;;1.66;100.00;95102.28;5093100;28;21093;-52
2021/12/01 02:41:53;;;;;;;0.97;0.97;;;;;;;2.11;97.07;95117.59;5092998;28;20525;-52
2021/12/01 02:44:22;;;;;;;0.30;0.20;;;;;;;2.37;94.69;95122.47;5093022;28;20507;-52
2021/12/01 02:46:51;;;;;;;0.50;0.50;;;;;;;0.93;99.57;95124.13;5093232;28;20801;-52
2021/12/01 02:49:21;;;;;;;0.30;0.20;;;;;;;0.68;100.00;95131.97;5092846;28;20559;-52
2021/12/01 02:51:53;;;;;;;0.30;0.20;;;;;;;0.95;100.00;95115.09;5092442;28;20464;-52
2021/12/01 02:54:22;;;;;;;0.30;0.20;;;;;;;1.22;100.00;95119.03;5092795;28;20952;-52
2021/12/01 02:56:52;;;;;;;0.30;0.20;;;;;;;1.63;100.00;95120.22;5092714;28;20962;-52
2021/12/01 02:59:22;;;;;;;0.30;0.20;;;;;;;1.37;100.00;95123.13;5091856;28;20428;-52
2021/12/01 03:01:52;;;;;;;1.90;0.50;;;;;;;1.61;100.00;95098.75;5092451;28;21061;-52
2021/12/01 03:04:21;;;;;;;0.30;0.20;;;;;;;1.44;100.00;95132.50;5091899;28;20945;-52
2021/12/01 03:06:52;;;;;;;0.30;0.20;;;;;;;1.23;100.00;95081.50;5092600;28;20444;-52
2021/12/01 03:09:20;;;;;;;0.30;0.30;;;;;;;1.09;100.00;95142.66;5092817;28;20492;-52
2021/12/01 03:11:50;;;;;;;0.30;0.20;;;;;;;1.48;100.00;95131.03;5092541;28;20448;-52
2021/12/01 03:14:20;;;;;;;0.83;0.83;;;;;;;1.28;99.55;95118.19;5092509;28;20501;-52
2021/12/01 03:16:52;;;;;;;0.30;0.20;;;;;;;1.23;100.00;95115.44;5092525;28;20519;-52
2021/12/01 03:19:20;;;;;;;0.30;0.20;;;;;;;1.92;98.42;95106.41;5092500;28;20486;-52
2021/12/01 03:21:49;;;;;;;0.30;0.30;;;;;;;1.49;99.20;95114.34;5092206;28;20865;-52
2021/12/01 03:24:19;;;;;;;0.30;0.20;;;;;;;1.07;100.00;95139.47;5092364;28;20515;-52
2021/12/01 03:26:48;;;;;;;0.30;0.20;;;;;;;0.93;100.00;95148.44;5092188;28;20519;-52
2021/12/01 03:29:16;;;;;;;0.30;0.20;;;;;;;1.15;100.00;95117.50;5091876;28;20460;-52
2021/12/01 03:31:45;;;;;;;0.40;0.40;;;;;;;0.98;100.00;95132.13;5092350;28;20430;-52
2021/12/01 03:34:14;;;;;;;0.30;0.20;;;;;;;1.32;100.00;95130.81;5092240;28;20457;-52
2021/12/01 03:36:42;;;;;;;0.30;0.30;;;;;;;1.37;100.00;95107.47;5092529;28;20507;-52
2021/12/01 03:39:11;;;;;;;0.30;0.20;;;;;;;1.18;100.00;95060.47;5092178;28;20528;-52
2021/12/01 03:41:41;;;;;;;0.30;0.20;;;;;;;1.28;100.00;95089.47;5091945;28;20467;-52
2021/12/01 03:44:10;;;;;;;0.30;0.20;;;;;;;1.71;99.44;95096.41;5092358;28;20451;-52
2021/12/01 03:46:38;;;;;;;0.30;0.20;;;;;;;1.83;99.08;95085.00;5091995;28;20515;-52
2021/12/01 03:49:07;;;;;;;0.30;0.20;;;;;;;1.68;96.61;95092.44;5092362;28;20518;-52
2021/12/01 03:51:36;;;;;;;0.30;0.20;;;;;;;1.24;100.00;95103.16;5092261;28;20432;-52
2021/12/01 03:54:05;;;;;;;0.30;0.20;;;;;;;1.18;98.98;95101.41;5092474;28;20496;-52
2021/12/01 03:56:34;;;;;;;0.30;0.20;;;;;;;1.21;100.00;95122.66;5091967;28;20432;-52
2021/12/01 03:59:05;;;;;;;0.30;0.20;;;;;;;1.00;98.89;95044.00;5092390;28;20444;-52
2021/12/01 04:01:36;;;;;;;0.30;0.20;;;;;;;1.08;100.00;95140.25;5091186;28;20436;-53
2021/12/01 04:04:05;;;;;;;0.30;0.20;;;;;;;1.14;100.00;95144.59;5091580;28;20416;-52
2021/12/01 04:06:33;;;;;;;0.30;0.20;;;;;;;1.17;99.74;95087.56;5091337;28;21119;-52
2021/12/01 04:09:03;;;;;;;0.30;0.20;;;;;;;1.14;100.00;95127.13;5091855;28;20468;-52
2021/12/01 04:11:32;;;;;;;0.30;0.20;;;;;;;0.73;100.00;95134.75;5095016;28;20489;-52
2021/12/01 04:14:01;;;;;;;0.30;0.20;;;;;;;1.21;100.00;95132.31;5095905;28;20428;-52
2021/12/01 04:16:30;;;;;;;0.30;0.20;;;;;;;0.71;100.00;95136.75;5095617;28;20470;-52
2021/12/01 04:18:59;;;;;;;0.27;0.20;;;;;;;1.19;100.00;95113.44;5095819;28;20439;-52
2021/12/01 04:21:28;;;;;;;1.23;1.23;;;;;;;1.18;100.00;95143.19;5095901;28;20979;-52
2021/12/01 04:23:56;;;;;;;0.30;0.20;;;;;;;1.52;100.00;95142.63;5095759;28;20467;-52
2021/12/01 04:26:27;;;;;;;0.30;0.20;;;;;;;1.20;100.00;95141.94;5095852;28;20464;-52
2021/12/01 04:28:56;;;;;;;0.30;0.20;;;;;;;0.94;99.12;95043.03;5095659;28;20622;-52
2021/12/01 04:31:26;;;;;;;0.30;0.20;;;;;;;1.76;98.50;95147.00;5095457;28;20854;-52
2021/12/01 04:33:56;;;;;;;0.40;0.30;;;;;;;1.44;99.11;95160.41;5095373;28;20940;-52
2021/12/01 04:36:28;;;;;;;0.30;0.20;;;;;;;1.43;99.98;95156.19;5095538;28;20420;-52
2021/12/01 04:38:57;;;;;;;0.30;0.20;;;;;;;1.31;100.00;95135.22;5095771;28;20485;-52
2021/12/01 04:41:28;;;;;;;0.40;0.30;;;;;;;0.94;100.00;95170.06;5095795;28;20432;-52
2021/12/01 04:43:59;;;;;;;0.30;0.30;;;;;;;-0.27;100.00;95155.56;5095740;28;20455;-52
2021/12/01 04:46:28;;;;;;;0.73;0.73;;;;;;;-0.25;100.00;95137.91;5095426;28;20470;-52
2021/12/01 04:48:59;;;;;;;0.30;0.30;;;;;;;0.04;100.00;95133.97;5095293;28;20985;-52
2021/12/01 04:51:27;;;;;;;2.10;2.00;;;;;;;-0.93;100.00;95136.69;5095410;28;20455;-52
2021/12/01 04:53:58;;;;;;;0.30;0.30;;;;;;;-0.74;100.00;95130.69;5094809;28;20873;-52
2021/12/01 04:56:27;;;;;;;0.40;0.40;;;;;;;-0.82;100.00;95123.88;5095272;28;20871;-52
2021/12/01 04:58:55;;;;;;;0.30;0.30;;;;;;;-0.17;100.00;95127.25;5095141;28;20435;-52
2021/12/01 05:01:24;;;;;;;0.30;0.30;;;;;;;-0.62;100.00;95131.63;5095115;28;20474;-52
2021/12/01 05:03:53;;;;;;;2.53;2.27;;;;;;;-0.23;100.00;95135.91;5095379;28;20420;-52
2021/12/01 05:06:23;;;;;;;0.30;0.20;;;;;;;0.07;100.00;95147.41;5095272;28;20489;-52
2021/12/01 05:08:51;;;;;;;1.13;1.13;;;;;;;0.29;100.00;95138.25;5094880;28;20424;-52
2021/12/01 05:11:22;;;;;;;0.30;0.27;;;;;;;-0.21;100.00;95139.91;5094863;28;20967;-52
2021/12/01 05:14:10;;;;;;;0.40;0.40;;;;;;;-0.39;100.00;95155.41;5095133;28;20456;-52
2021/12/01 05:16:39;;;;;;;0.33;0.33;;;;;;;0.03;100.00;95158.44;5094830;28;20460;-52
2021/12/01 05:19:08;;;;;;;0.30;0.20;;;;;;;0.23;100.00;95159.94;5094615;28;20525;-52
2021/12/01 05:21:38;;;;;;;0.40;0.33;;;;;;;0.26;100.00;95175.16;5094162;28;20497;-52
2021/12/01 05:24:07;;;;;;;0.30;0.20;;;;;;;0.34;100.00;95180.13;5094727;28;20809;-52
2021/12/01 05:26:36;;;;;;;0.30;0.20;;;;;;;0.25;100.00;95173.56;5094566;28;20523;-52
2021/12/01 05:29:06;;;;;;;0.30;0.30;;;;;;;-0.19;100.00;95176.97;5094588;28;20511;-52
2021/12/01 05:31:35;;;;;;;1.07;0.97;;;;;;;0.05;100.00;95162.44;5094218;28;20526;-52
2021/12/01 05:34:04;;;;;;;0.57;0.57;;;;;;;0.06;100.00;95160.63;5094053;28;20417;-52
2021/12/01 05:36:32;;;;;;;2.43;2.43;;;;;;;0.08;100.00;95106.53;5094154;28;20999;-52
2021/12/01 05:39:03;;;;;;;1.90;1.23;;;;;;;0.74;100.00;95183.28;5094112;28;20844;-52
2021/12/01 05:41:31;;;;;;;0.30;0.30;;;;;;;0.79;100.00;95173.00;5094229;28;20959;-52
2021/12/01 05:44:00;;;;;;;0.73;0.73;;;;;;;0.55;100.00;95165.97;5093289;28;20439;-52
2021/12/01 05:46:36;;;;;;;0.43;0.40;;;;;;;0.80;100.00;95173.81;5094402;28;20459;-52
2021/12/01 05:49:06;;;;;;;0.30;0.30;;;;;;;1.03;100.00;95160.97;5093702;28;20523;-52
2021/12/01 05:51:37;;;;;;;0.83;0.83;;;;;;;-0.02;100.00;95139.00;5093660;28;20464;-51
2021/12/01 05:54:08;;;;;;;2.13;0.67;;;;;;;0.08;100.00;95145.59;5093915;28;20443;-52
2021/12/01 05:56:37;;;;;;;3.20;2.23;;;;;;;-0.24;100.00;95123.91;5094245;28;20931;-52
2021/12/01 05:59:06;;;;;;;1.70;1.60;;;;;;;0.23;100.00;95169.56;5093724;28;20471;-52
2021/12/01 06:01:34;;;;;;;0.30;0.30;;;;;;;-0.44;100.00;95131.00;5093266;28;20458;-52
2021/12/01 06:04:03;;;;;;;5.63;3.20;;;;;;;-0.02;100.00;95170.28;5093402;28;20880;-52
2021/12/01 06:06:32;;;;;;;0.90;0.90;;;;;;;0.14;100.00;95176.81;5093656;28;20436;-52
2021/12/01 06:09:00;;;;;;;1.70;0.83;;;;;;;0.42;100.00;95179.06;5093638;28;20429;-52
2021/12/01 06:11:30;;;;;;;1.80;0.97;;;;;;;0.39;100.00;95174.28;5093371;28;20803;-52
2021/12/01 06:13:59;;;;;;;0.70;0.70;;;;;;;-0.88;100.00;95199.31;5093250;28;20490;-52
2021/12/01 06:16:28;;;;;;;1.80;1.70;;;;;;;-0.61;100.00;95203.53;5093353;28;20482;-52
2021/12/01 06:18:56;;;;;;;0.90;0.90;;;;;;;-0.58;100.00;95207.53;5093008;28;20439;-52
2021/12/01 06:21:25;;;;;;;0.67;0.67;;;;;;;0.32;100.00;95203.00;5093553;28;20446;-52
2021/12/01 06:23:54;;;;;;;2.43;2.43;;;;;;;0.03;100.00;95208.72;5093741;28;20488;-52
2021/12/01 06:26:22;;;;;;;0.30;0.20;;;;;;;0.25;100.00;95214.47;5093272;28;20432;-52
2021/12/01 06:28:52;;;;;;;1.23;1.23;;;;;;;1.20;100.00;95215.03;5093250;28;20543;-52
2021/12/01 06:31:21;;;;;;;0.40;0.40;;;;;;;1.76;100.00;95219.34;5092497;28;21089;-52
2021/12/01 06:33:50;;;;;;;0.30;0.20;;;;;;;1.78;96.40;95138.94;5093106;28;20483;-52
2021/12/01 06:36:18;;;;;;;0.30;0.20;;;;;;;3.26;85.08;95208.69;5093520;28;20424;-52
2021/12/01 06:38:47;;;;;;;0.40;0.30;;;;;;;3.21;89.68;95204.13;5093208;28;20420;-52
2021/12/01 06:41:17;;;;;;;0.60;0.60;;;;;;;2.78;89.90;95202.78;5092764;28;20510;-51
2021/12/01 06:43:45;;;;;;;0.80;0.80;;;;;;;3.05;87.46;95118.41;5092973;28;20471;-51
2021/12/01 06:46:15;;;;;;;0.50;0.50;;;;;;;2.44;85.67;95063.84;5093232;28;20448;-52
2021/12/01 06:48:44;;;;;;;0.93;0.93;;;;;;;4.49;75.11;95209.22;5092728;28;20428;-52
2021/12/01 06:51:12;;;;;;;0.70;0.70;;;;;;;4.93;72.74;95203.19;5092768;28;20518;-51
2021/12/01 06:53:42;;;;;;;1.20;0.70;;;;;;;4.83;70.84;95192.53;5092792;28;20464;-51
2021/12/01 06:56:10;;;;;;;0.67;0.67;;;;;;;4.01;76.35;95190.44;5092795;28;20467;-51
2021/12/01 06:58:39;;;;;;;1.80;0.67;;;;;;;5.05;73.17;95201.31;5093180;28;20833;-52
2021/12/01 07:01:08;;;;;;;3.60;1.80;;;;;;;5.35;68.73;95194.97;5092684;28;20435;-52
2021/12/01 07:03:43;;;;;;;0.63;0.63;;;;;;;6.31;64.77;95195.28;5092352;28;20432;-52
2021/12/01 07:06:11;;;;;;;0.77;0.77;;;;;;;6.90;60.96;95192.75;5092567;28;20420;-52
2021/12/01 07:08:40;;;;;;;0.40;0.40;;;;;;;6.05;61.77;95196.00;5092688;28;20432;-51
2021/12/01 07:11:09;;;;;;;0.80;0.80;;;;;;;5.49;64.36;95196.25;5092709;28;20605;-59
2021/12/01 07:13:37;;;;;;;0.63;0.63;;;;;;;7.06;56.53;95205.03;5092585;28;20456;-51
2021/12/01 07:16:06;;;;;;;0.57;0.57;;;;;;;6.90;56.94;95200.66;5092588;28;20424;-51
2021/12/01 07:18:35;;;;;;;2.60;2.17;;;;;;;7.49;55.45;95211.97;5092468;28;20455;-51
2021/12/01 07:21:05;;;;;;;1.40;1.10;;;;;;;7.57;51.31;95224.69;5092445;28;20432;-51
2021/12/01 07:23:33;;;;;;;1.70;1.60;;;;;;;7.82;49.61;95224.13;5092293;28;20460;-51
2021/12/01 07:26:03;;;;;;;1.87;1.30;;;;;;;7.94;50.71;95224.72;5092032;28;20429;-53
2021/12/01 07:28:32;;;;;;;0.73;0.73;;;;;;;7.72;52.51;95218.72;5092242;28;20458;-53
2021/12/01 07:31:01;;;;;;;0.93;0.93;;;;;;;8.44;50.10;95218.94;5092079;28;20557;-52
2021/12/01 07:33:30;;;;;;;5.57;0.93;;;;;;;9.16;47.66;95232.88;5092256;28;20435;-53
2021/12/01 07:35:59;;;;;;;1.17;1.13;;;;;;;9.38;46.66;95209.66;5092418;28;20483;-53
2021/12/01 07:38:29;;;;;;;2.10;2.00;;;;;;;9.68;46.03;95226.59;5092251;28;20425;-54
2021/12/01 07:40:58;;;;;;;1.27;1.23;;;;;;;9.50;45.61;95231.34;5092108;28;20443;-55
2021/12/01 07:43:27;;;;;;;5.80;2.13;;;;;;;9.46;45.37;95197.75;5092476;28;20429;-56
2021/12/01 07:45:55;;;;;;;0.60;0.50;;;;;;;9.90;47.54;95227.88;5091350;28;21138;-56
2021/12/01 07:48:24;;;;;;;1.87;1.77;;;;;;;9.88;44.95;95202.75;5092302;28;20413;-57
2021/12/01 07:50:52;;;;;;;3.00;2.27;;;;;;;10.37;45.74;95213.53;5091486;28;20454;-58
2021/12/01 07:53:21;;;;;;;1.93;1.83;;;;;;;10.72;44.84;95203.59;5092118;28;20647;-59
2021/12/01 07:55:51;;;;;;;3.20;3.00;;;;;;;10.67;45.25;95194.84;5091916;28;20436;-60
2021/12/01 07:58:19;;;;;;;1.23;1.13;;;;;;;10.63;45.26;95168.09;5092228;28;20444;-61
2021/12/01 08:00:48;;;;;;;2.97;2.87;;;;;;;10.72;43.03;95197.47;5091898;28;20472;-61
2021/12/01 08:03:17;;;;;;;1.10;1.10;;;;;;;11.10;42.93;95188.00;5092438;28;20756;-61
2021/12/01 08:05:47;;;;;;;9.03;3.50;;;;;;;11.19;41.79;95192.44;5091855;28;21018;-63
2021/12/01 08:08:15;;;;;;;1.30;1.13;;;;;;;11.26;42.10;95181.50;5093898;28;20443;-59
2021/12/01 08:10:45;;;;;;;1.80;1.70;;;;;;;11.26;41.82;95190.25;5091791;28;20432;-58
2021/12/01 08:13:15;;;;;;;2.10;1.90;;;;;;;10.67;42.43;95213.41;5091861;28;20958;-57
2021/12/01 08:15:50;;;;;;;2.37;2.20;;;;;;;10.27;41.60;95224.16;5091947;28;20862;-57
2021/12/01 08:18:19;;;;;;;1.43;1.33;;;;;;;11.06;39.64;95210.81;5091752;28;20432;-56
2021/12/01 08:20:48;;;;;;;3.63;2.90;;;;;;;11.57;37.88;95195.34;5091404;28;20437;-56
2021/12/01 08:23:16;;;;;;;0.60;0.40;;;;;;;11.55;39.26;95181.56;5091853;28;20513;-56
2021/12/01 08:25:46;;;;;;;8.80;0.63;;;;;;;11.82;37.50;95206.56;5091957;28;20482;-57
2021/12/01 08:28:16;;;;;;;2.57;2.47;;;;;;;12.91;37.37;95204.03;5090786;28;20433;-55
2021/12/01 08:30:44;;;;;;;3.37;3.17;;;;;;;11.75;38.05;95107.06;5091330;28;20800;-55
2021/12/01 08:33:13;;;;;;;0.50;0.50;;;;;;;13.14;36.78;95184.59;5091340;28;20471;-55
2021/12/01 08:35:42;;;;;;;2.00;1.10;;;;;;;13.58;35.45;95185.00;5091522;28;20424;-55
2021/12/01 08:38:11;;;;;;;1.90;1.80;;;;;;;14.98;35.02;95174.66;5091379;28;20430;-54
2021/12/01 08:40:40;;;;;;;2.10;0.93;;;;;;;14.67;35.08;95168.41;5091519;28;20440;-53
2021/12/01 08:43:08;;;;;;;0.87;0.80;;;;;;;14.01;35.46;95174.97;5091418;28;20530;-53
2021/12/01 08:45:38;;;;;;;0.63;0.60;;;;;;;13.50;35.42;95180.34;5091473;28;20451;-53
2021/12/01 08:48:07;;;;;;;1.20;1.10;;;;;;;13.46;35.69;95175.91;5091852;28;20416;-52
2021/12/01 08:50:36;;;;;;;6.37;1.23;;;;;;;13.45;34.50;95169.78;5091425;28;20428;-52
2021/12/01 08:53:04;;;;;;;2.07;1.97;;;;;;;13.70;34.09;95150.72;5091328;28;20517;-52
2021/12/01 08:55:33;;;;;;;4.93;0.80;;;;;;;14.62;31.39;95158.63;5091494;28;20864;-51
2021/12/01 08:58:08;;;;;;;0.67;0.40;;;;;;;14.38;30.07;95156.16;5094915;28;20428;-51
2021/12/01 09:00:44;;;;;;;3.30;1.27;;;;;;;16.30;27.11;95149.03;5095191;28;20467;-51
2021/12/01 09:03:13;;;;;;;1.53;1.33;;;;;;;14.53;28.74;95131.06;5094983;28;20443;-51
2021/12/01 09:05:44;;;;;;;0.70;0.70;;;;;;;13.14;31.00;95140.16;5094366;28;20461;-51
2021/12/01 09:08:13;;;;;;;4.60;0.70;;;;;;;14.07;31.94;95138.34;5094608;28;20485;-51
2021/12/01 09:10:42;;;;;;;1.87;1.43;;;;;;;14.44;30.65;95144.31;5094526;28;20440;-51
2021/12/01 09:13:11;;;;;;;1.23;1.23;;;;;;;14.64;29.15;95116.44;5094726;28;20517;-51
2021/12/01 09:15:42;;;;;;;3.97;1.37;;;;;;;15.66;30.69;95121.06;5094763;28;20428;-51
2021/12/01 09:18:12;;;;;;;0.73;0.60;;;;;;;15.10;27.75;95132.25;5094890;28;20917;-52
2021/12/01 09:20:41;;;;;;;0.50;0.50;;;;;;;15.67;27.42;95120.75;5094610;28;20944;-52
2021/12/01 09:23:10;;;;;;;1.00;0.50;;;;;;;15.08;28.25;95100.50;5095007;28;20451;-52
2021/12/01 09:25:38;;;;;;;1.57;1.57;;;;;;;16.04;31.65;95122.19;5094593;28;20516;-52
2021/12/01 09:28:14;;;;;;;1.00;1.00;;;;;;;14.69;27.62;95120.88;5094556;28;20468;-52
2021/12/01 09:30:45;;;;;;;1.33;0.77;;;;;;;15.82;26.56;95115.00;5094354;28;20522;-53
2021/12/01 09:33:14;;;;;;;0.50;0.30;;;;;;;16.04;26.52;95114.16;5094152;28;20506;-51
2021/12/01 09:35:44;;;;;;;0.50;0.50;;;;;;;15.82;27.63;95119.56;5093799;28;20433;-52
2021/12/01 09:38:14;;;;;;;0.77;0.77;;;;;;;16.27;26.34;95109.53;5094317;28;20490;-52
2021/12/01 09:40:46;;;;;;;0.60;0.57;;;;;;;16.46;26.79;95089.47;5094598;28;20799;-52
2021/12/01 09:43:15;;;;;;;0.60;0.50;;;;;;;16.10;28.41;95035.41;5094018;28;20814;-52
2021/12/01 09:45:47;;;;;;;1.50;1.40;;;;;;;16.54;26.86;95103.22;5094445;28;20450;-52
2021/12/01 09:48:15;;;;;;;1.37;1.27;;;;;;;17.02;27.42;95102.03;5094249;28;20841;-52
2021/12/01 09:50:55;;;;;;;0.83;0.83;;;;;;;16.58;29.21;95109.50;5094336;28;20460;-52
2021/12/01 09:53:23;;;;;;;2.23;2.13;;;;;;;16.36;27.38;95095.13;5093806;28;20537;-52
2021/12/01 09:55:52;;;;;;;1.20;1.07;;;;;;;16.00;29.20;95088.34;5094288;28;20824;-51
2021/12/01 09:58:24;;;;;;;1.43;1.03;;;;;;;16.75;28.44;95088.13;5093808;28;20498;-52
2021/12/01 10:00:57;;;;;;;0.97;0.87;;;;;;;16.29;29.52;95102.78;5093820;28;20474;-57
2021/12/01 10:03:26;;;;;;;1.53;1.43;;;;;;;14.76;31.86;95103.38;5093773;28;20421;-51
2021/12/01 10:06:01;;;;;;;5.30;1.07;;;;;;;16.10;29.72;95096.91;5093543;28;20432;-51
2021/12/01 10:08:34;;;;;;;0.80;0.77;;;;;;;16.73;29.94;95085.78;5093206;28;20889;-51
2021/12/01 10:11:08;;;;;;;0.80;0.80;;;;;;;16.81;29.61;95065.47;5093620;28;20857;-51
2021/12/01 10:13:39;;;;;;;1.80;0.70;;;;;;;17.83;27.70;95071.84;5093432;28;20979;-51
2021/12/01 10:16:11;;;;;;;0.90;0.90;;;;;;;17.20;26.78;95081.41;5093427;28;20417;-51
2021/12/01 10:18:41;;;;;;;1.80;1.70;;;;;;;17.56;29.22;95095.22;5093195;28;20436;-52
2021/12/01 10:21:14;;;;;;;2.30;1.53;;;;;;;16.97;29.51;95091.47;5093840;28;20452;-52
2021/12/01 10:23:45;;;;;;;5.23;0.83;;;;;;;16.93;26.62;95070.97;5093658;28;20429;-51
2021/12/01 10:26:17;;;;;;;1.20;1.10;;;;;;;17.06;26.96;95021.84;5093653;28;20452;-52
2021/12/01 10:28:48;;;;;;;1.90;0.80;;;;;;;17.29;27.71;95084.06;5093205;28;20519;-52
2021/12/01 10:31:36;;;;;;;0.50;0.50;;;;;;;17.45;26.61;95085.16;5093031;28;20841;-52
2021/12/01 10:34:26;;;;;;;1.80;1.60;;;;;;;17.13;27.74;95048.91;5093363;28;20472;-52
2021/12/01 10:37:15;;;;;;;0.97;0.97;;;;;;;18.70;26.63;95063.06;5093424;28;20512;-52
2021/12/01 10:39:45;;;;;;;0.50;0.40;;;;;;;17.31;28.57;95074.59;5093048;28;20467;-53
2021/12/01 10:42:16;;;;;;;0.60;0.53;;;;;;;19.33;27.96;95051.97;5092808;28;20440;-53
2021/12/01 10:44:59;;;;;;;0.50;0.40;;;;;;;18.58;26.83;95053.06;5092763;28;20473;-52
2021/12/01 10:47:40;;;;;;;0.83;0.83;;;;;;;19.06;26.91;95052.53;5092514;28;20463;-53
2021/12/01 10:50:10;;;;;;;1.97;0.87;;;;;;;19.05;26.26;95052.88;5092643;28;20440;-52
2021/12/01 10:52:42;;;;;;;1.00;0.90;;;;;;;19.92;26.38;95054.41;5092533;28;20962;-51
2021/12/01 10:55:14;;;;;;;0.73;0.60;;;;;;;18.54;29.23;95040.63;5092999;28;20869;-52
2021/12/01 10:57:47;;;;;;;0.57;0.47;;;;;;;19.44;26.91;95030.91;5093035;28;20440;-51
2021/12/01 11:00:22;;;;;;;0.60;0.47;;;;;;;18.01;26.57;95023.19;5092703;28;20421;-52
2021/12/01 11:02:52;;;;;;;0.50;0.47;;;;;;;16.82;28.03;95030.38;5092694;28;20916;-52
2021/12/01 11:05:30;;;;;;;0.50;0.40;;;;;;;17.33;29.03;95039.47;5092499;28;20420;-52
2021/12/01 11:08:10;;;;;;;0.93;0.93;;;;;;;19.22;25.68;95028.56;5092922;28;20420;-52
2021/12/01 11:10:40;;;;;;;1.37;0.57;;;;;;;19.46;26.18;95039.41;5092513;28;20485;-53
2021/12/01 11:13:09;;;;;;;2.67;0.93;;;;;;;18.59;26.35;95027.78;5092396;28;20983;-53
2021/12/01 11:15:39;;;;;;;1.50;1.50;;;;;;;17.73;27.92;95028.19;5092547;28;20783;-53
2021/12/01 11:18:31;;;;;;;0.40;0.30;;;;;;;18.01;28.12;95036.59;5092423;28;20427;-53
2021/12/01 11:21:11;;;;;;;0.60;0.40;;;;;;;19.02;27.83;95028.22;5091407;28;20468;-54
2021/12/01 11:23:42;;;;;;;1.60;1.53;;;;;;;18.48;26.18;95021.22;5092346;28;20416;-52
2021/12/01 11:26:13;;;;;;;0.80;0.43;;;;;;;17.76;28.22;95043.63;5092178;28;20470;-53
2021/12/01 11:28:43;;;;;;;0.50;0.30;;;;;;;16.77;29.39;95035.09;5091352;28;20432;-52
2021/12/01 11:31:14;;;;;;;0.60;0.60;;;;;;;18.21;27.59;95017.09;5092042;28;20472;-52
2021/12/01 11:33:44;;;;;;;0.47;0.37;;;;;;;19.45;26.62;95016.34;5092139;28;20988;-52
2021/12/01 11:36:15;;;;;;;0.50;0.50;;;;;;;19.45;26.53;94997.53;5092083;28;20464;-53
2021/12/01 11:38:44;;;;;;;0.40;0.30;;;;;;;20.24;26.74;95000.53;5092554;28;20483;-49
2021/12/01 11:41:13;;;;;;;1.47;1.17;;;;;;;18.52;30.36;95011.41;5092220;28;20464;-46
2021/12/01 11:43:43;;;;;;;0.40;0.30;;;;;;;18.94;29.30;95004.94;5092446;28;20440;-50
2021/12/01 11:46:11;;;;;;;0.40;0.30;;;;;;;19.62;29.11;94998.13;5092059;28;20424;-47
2021/12/01 11:48:46;;;;;;;0.50;0.40;;;;;;;19.49;27.59;95003.81;5091155;28;20459;-47
2021/12/01 11:51:19;;;;;;;0.50;0.40;;;;;;;19.36;27.66;95008.34;5092101;28;20471;-47